»·PEaware :: CFEGU S36-KORS

CFEGU :: S36-KORS

FLIGHT INFORMATION

Flight Status: Arrived
Operator: Unknown
More flights by this operator :: More flights under this callsign
Pilot: Vincent M. (370)
Aircraft: CESSNA 172 SKYHAWK
(C172)
More flights by this aircraft type
Origin: S36 Norman Grier Field
United States
Destination: KORS Orcas Island
United States
More flights between these airports :: More routes between these airports
Route:
File this flight plan on PilotEdge
Remarks: Washington Alphabet Challenge
Altitude:
(Current/Filed)
4,500ft
Speed:
(Current/Filed)
110kts
Departed: 04-May-20 06:16 PM
Arrived: 04-May-20 07:12 PM
Distance/Time
Traveled:
88nm/0:56
Distance/Time
To Go:
Arrived

Flight Plot

Page will automatically refresh every two minutes.

Flight plan parsing failed; only flown route is shown


Map Options




Map Legend


Flown Route
Filed Route
Departure Airport
Arrival Airport
Navaid (VOR, NDB)
Fix

Horizontal Profiles

Position Reports

Time Latitude Longitude Heading Altitude Ground
Speed
04-May-20 18:11 47.340806 -122.103315 260 476ft 0kts
04-May-20 18:12 47.341450 -122.104252 292 476ft 0kts
04-May-20 18:13 47.337404 -122.103342 169 476ft 27kts
04-May-20 18:14 47.333128 -122.102327 199 476ft 4kts
04-May-20 18:15 47.347978 -122.106756 340 1089ft 75kts
04-May-20 18:16 47.368054 -122.118018 337 2094ft 79kts
04-May-20 18:17 47.388552 -122.129532 338 3020ft 79kts
04-May-20 18:18 47.409818 -122.141282 338 3852ft 83kts
04-May-20 18:19 47.432184 -122.153461 341 4506ft 102kts
04-May-20 18:20 47.461619 -122.167624 342 4499ft 114kts
04-May-20 18:21 47.487433 -122.158337 74 4504ft 113kts
04-May-20 18:22 47.493951 -122.112415 79 4500ft 114kts
04-May-20 18:23 47.504948 -122.069311 44 4496ft 114kts
04-May-20 18:24 47.535160 -122.059047 2 4500ft 114kts
04-May-20 18:25 47.566889 -122.057098 3 4500ft 114kts
04-May-20 18:26 47.598576 -122.055112 3 4500ft 114kts
04-May-20 18:27 47.630262 -122.053159 1 4499ft 114kts
04-May-20 18:28 47.662036 -122.054140 357 4499ft 114kts
04-May-20 18:29 47.693713 -122.057009 357 4500ft 114kts
04-May-20 18:30 47.725352 -122.059959 355 4499ft 114kts
04-May-20 18:31 47.756244 -122.069996 346 4498ft 112kts
04-May-20 18:32 47.786245 -122.081516 346 4500ft 111kts
04-May-20 18:33 47.813503 -122.101146 315 4498ft 110kts
04-May-20 18:34 47.828496 -122.140614 285 4499ft 110kts
04-May-20 18:35 47.837416 -122.184509 286 4500ft 111kts
04-May-20 18:36 47.845850 -122.228878 286 4500ft 111kts
04-May-20 18:37 47.855849 -122.272041 301 4500ft 111kts
04-May-20 18:38 47.871682 -122.311557 301 4500ft 111kts
04-May-20 18:39 47.887512 -122.350987 301 4500ft 111kts
04-May-20 18:40 47.907992 -122.384089 330 4500ft 110kts
04-May-20 18:41 47.934618 -122.407007 331 4500ft 110kts
04-May-20 18:42 47.962642 -122.426368 337 4500ft 110kts
04-May-20 18:43 47.990786 -122.444969 337 4500ft 110kts
04-May-20 18:44 48.019360 -122.461838 346 4500ft 110kts
04-May-20 18:45 48.049268 -122.472825 347 4500ft 111kts
04-May-20 18:46 48.079273 -122.483804 347 4500ft 111kts
04-May-20 18:47 48.108980 -122.495882 338 4499ft 111kts
04-May-20 18:48 48.137222 -122.514411 337 4500ft 111kts
04-May-20 18:49 48.164887 -122.534846 327 4499ft 111kts
04-May-20 18:50 48.190394 -122.560686 326 4500ft 111kts
04-May-20 18:51 48.215982 -122.586632 327 4500ft 111kts
04-May-20 18:52 48.241619 -122.612624 327 4500ft 111kts
04-May-20 18:53 48.267207 -122.638564 327 4500ft 111kts
04-May-20 18:54 48.292797 -122.664502 326 4500ft 111kts
04-May-20 18:55 48.318371 -122.690422 326 4500ft 111kts
04-May-20 18:56 48.344310 -122.715453 332 4500ft 111kts
04-May-20 18:57 48.371590 -122.737230 332 4500ft 111kts
04-May-20 18:58 48.398866 -122.759003 332 4500ft 111kts
04-May-20 18:59 48.426816 -122.778788 335 4500ft 111kts
04-May-20 19:00 48.454789 -122.798321 335 4500ft 111kts
04-May-20 19:01 48.483444 -122.818262 335 3571ft 114kts
04-May-20 19:02 48.510818 -122.837397 334 2996ft 94kts
04-May-20 19:03 48.533569 -122.852394 336 3001ft 88kts
04-May-20 19:04 48.556561 -122.867478 336 3000ft 91kts
04-May-20 19:05 48.582447 -122.885539 332 2437ft 120kts
04-May-20 19:06 48.611032 -122.905367 350 1997ft 101kts
04-May-20 19:07 48.637695 -122.910645 356 1601ft 88kts
04-May-20 19:08 48.662286 -122.911503 359 1189ft 81kts
04-May-20 19:09 48.685442 -122.910731 359 667ft 82kts
04-May-20 19:10 48.705727 -122.910657 0 33ft 53kts
04-May-20 19:11 48.709689 -122.909337 279 28ft 0kts
04-May-20 19:12 48.709689 -122.909340 282 28ft 0kts
04-May-20 19:13 48.709689 -122.909340 282 28ft 0kts
04-May-20 19:14 48.709689 -122.909340 282 28ft 0kts
04-May-20 19:15 48.709689 -122.909340 282 28ft 0kts
04-May-20 19:16 48.709689 -122.909340 282 28ft 0kts
04-May-20 19:17 48.709689 -122.909340 282 28ft 0kts

Navigation Log

Ident Type
Flight plan parsing failed, navigation log unavailable